Murree Weather



Murree's Current Weather

Temprature 21.11o scattered clouds

scattered clouds

Rain: 0 %

Min Temprature21.11o
Max Temprature21.11o
Humidity74
Wind Speed4.06 m/h
Sun Rise05:28:56
Sun Set18:41:11
Current Time: 21-Apr-2019 05:12:45
Lat/Lon: 33.91, 73.39




Murree's Geo Location



Murree's Weather Forecast

Time Overall Temp Min Temp Max Temp Humidity Wind Speed Rain
21-Apr-2019 (Sun)
08:00:00 clear sky 25.620 23.499 25.620 45 2.65 m/h 0 %
11:00:00 clear sky 29.340 27.750 29.340 29 2.39 m/h 0 %
14:00:00 clear sky 30.510 29.450 30.510 27 3.3 m/h 0 %
17:00:00 clear sky 28.780 28.250 28.780 30 2.87 m/h 0 %
20:00:00 clear sky 22.450 22.450 22.450 39 1.8 m/h 0 %
23:00:00 clear sky 21.050 21.050 21.050 45 4.18 m/h 0 %
22-Apr-2019 (Mon)
02:00:00 clear sky 20.070 20.070 20.070 47 4.8 m/h 0 %
05:00:00 clear sky 19.384 19.384 19.384 43 4.69 m/h 0 %
08:00:00 clear sky 24.336 24.336 24.336 39 3.34 m/h 0 %
11:00:00 clear sky 29.820 29.820 29.820 21 2.06 m/h 0 %
14:00:00 clear sky 31.515 31.515 31.515 21 3.5 m/h 0 %
17:00:00 clear sky 29.931 29.931 29.931 27 2.94 m/h 0 %
20:00:00 clear sky 23.550 23.550 23.550 36 2.25 m/h 0 %
23:00:00 clear sky 22.196 22.196 22.196 38 4.53 m/h 0 %
23-Apr-2019 (Tue)
02:00:00 clear sky 21.277 21.277 21.277 37 5.31 m/h 0 %
05:00:00 scattered clouds 20.696 20.696 20.696 36 4.99 m/h 0 %
08:00:00 overcast clouds 24.777 24.777 24.777 38 4.09 m/h 0 %
11:00:00 overcast clouds 31.250 31.250 31.250 19 2.11 m/h 0 %
14:00:00 scattered clouds 33.150 33.150 33.150 18 3.03 m/h 0 %
17:00:00 few clouds 31.750 31.750 31.750 23 2.47 m/h 0 %
20:00:00 scattered clouds 25.428 25.428 25.428 28 2.36 m/h 0 %
23:00:00 scattered clouds 24.050 24.050 24.050 32 4.4 m/h 0 %
24-Apr-2019 (Wed)
02:00:00 overcast clouds 23.682 23.682 23.682 33 5.21 m/h 0 %
05:00:00 overcast clouds 22.304 22.304 22.304 38 4.76 m/h 0 %
08:00:00 overcast clouds 25.150 25.150 25.150 41 5.01 m/h 0 %
11:00:00 overcast clouds 31.409 31.409 31.409 25 3.45 m/h 0 %
14:00:00 broken clouds 33.350 33.350 33.350 22 4.84 m/h 0 %
17:00:00 broken clouds 27.250 27.250 27.250 38 5.69 m/h 0 %
20:00:00 overcast clouds 25.655 25.655 25.655 38 6.59 m/h 0 %
23:00:00 overcast clouds 21.945 21.945 21.945 49 3.7 m/h 0 %
25-Apr-2019 (Thu)
02:00:00 overcast clouds 23.150 23.150 23.150 43 6.69 m/h 0 %
05:00:00 overcast clouds 21.162 21.162 21.162 48 5.71 m/h 0 %
08:00:00 scattered clouds 25.620 25.620 25.620 41 4.49 m/h 0 %
11:00:00 few clouds 31.390 31.390 31.390 23 1.83 m/h 0 %
14:00:00 clear sky 32.750 32.750 32.750 20 4.11 m/h 0 %
17:00:00 clear sky 31.411 31.411 31.411 20 3.25 m/h 0 %
20:00:00 clear sky 24.825 24.825 24.825 30 3.48 m/h 0 %
23:00:00 clear sky 22.643 22.643 22.643 32 5.64 m/h 0 %
26-Apr-2019 (Fri)
02:00:00 broken clouds 21.332 21.332 21.332 34 6.2 m/h 0 %
05:00:00 broken clouds 20.656 20.656 20.656 34 5.98 m/h 0 %

Famous Cities (60)